Time;durP1;ratioP1;P1;durP2;ratioP2;P2;SDS_P1;SDS_P2;PMS_P1;PMS_P2;Temp;Humidity;BMP_temperature;BMP_pressure;BME280_temperature;BME280_humidity;BME280_pressure;Samples;Min_cycle;Max_cycle;Signal;HPM_P1;HPM_P2
2021/08/10 00:01:14;;;;;;;5.22;2.30;;;;;;;;;;5092990;28;20036;-59
2021/08/10 00:03:40;;;;;;;4.88;2.17;;;;;;;;;;5093262;28;20040;-59
2021/08/10 00:06:05;;;;;;;3.30;2.25;;;;;;;;;;5093419;28;20064;-59
2021/08/10 00:08:31;;;;;;;2.47;2.28;;;;;;;;;;5075304;28;20066;-59
2021/08/10 00:10:56;;;;;;;3.00;2.50;;;;;;;;;;5093615;28;20032;-59
2021/08/10 00:13:22;;;;;;;2.65;2.30;;;;;;;;;;5097484;28;20024;-59
2021/08/10 00:15:48;;;;;;;3.20;2.22;;;;;;;;;;5097429;28;20111;-59
2021/08/10 00:18:14;;;;;;;2.15;1.95;;;;;;;;;;5097335;28;20123;-59
2021/08/10 00:20:39;;;;;;;5.63;2.03;;;;;;;;;;5097414;28;20468;-59
2021/08/10 00:23:06;;;;;;;4.32;2.20;;;;;;;;;;5097495;28;20043;-59
2021/08/10 00:25:32;;;;;;;4.63;2.00;;;;;;;;;;5097183;28;20032;-59
2021/08/10 00:27:58;;;;;;;4.47;2.42;;;;;;;;;;5096905;28;20028;-59
2021/08/10 00:30:24;;;;;;;3.97;2.30;;;;;;;;;;5078587;28;20040;-59
2021/08/10 00:32:50;;;;;;;2.15;1.95;;;;;;;;;;5097171;28;20028;-59
2021/08/10 00:35:16;;;;;;;4.63;1.98;;;;;;;;;;5079066;28;20060;-59
2021/08/10 00:37:42;;;;;;;3.30;2.15;;;;;;;;;;5096945;28;20024;-59
2021/08/10 00:40:09;;;;;;;4.32;2.20;;;;;;;;;;5078716;28;20385;-59
2021/08/10 00:42:34;;;;;;;3.53;2.20;;;;;;;;;;5078509;28;20044;-59
2021/08/10 00:45:00;;;;;;;3.55;2.35;;;;;;;;;;5078598;28;20036;-59
2021/08/10 00:47:32;;;;;;;3.47;2.58;;;;;;;;;;5078475;28;20043;-60
2021/08/10 00:49:57;;;;;;;6.03;2.67;;;;;;;;;;5078576;28;20088;-61
2021/08/10 00:52:23;;;;;;;3.03;2.72;;;;;;;;;;5078543;28;20021;-61
2021/08/10 00:54:48;;;;;;;2.63;2.42;;;;;;;;;;5078389;28;20036;-61
2021/08/10 00:57:15;;;;;;;4.68;2.67;;;;;;;;;;5078567;28;20028;-61
2021/08/10 00:59:41;;;;;;;3.25;2.90;;;;;;;;;;5078551;28;20043;-60
2021/08/10 01:02:08;;;;;;;3.10;2.30;;;;;;;;;;5074705;28;20040;-60
2021/08/10 01:04:35;;;;;;;5.57;2.35;;;;;;;;;;5075039;28;20036;-61
2021/08/10 01:07:07;;;;;;;3.70;2.50;;;;;;;;;;5074909;28;20028;-61
2021/08/10 01:09:45;;;;;;;2.38;2.20;;;;;;;;;;5074964;28;20040;-61
2021/08/10 01:12:28;;;;;;;3.40;2.45;;;;;;;;;;5075051;28;20037;-61
2021/08/10 01:15:06;;;;;;;2.75;2.47;;;;;;;;;;5075069;28;20050;-60
2021/08/10 01:17:32;;;;;;;5.72;3.30;;;;;;;;;;5074846;28;20037;-60
2021/08/10 01:20:11;;;;;;;4.05;3.25;;;;;;;;;;5058210;28;20055;-61
2021/08/10 01:22:42;;;;;;;5.15;3.15;;;;;;;;;;5074446;28;20040;-61
2021/08/10 01:25:25;;;;;;;4.60;3.17;;;;;;;;;;5074882;28;20055;-61
2021/08/10 01:28:09;;;;;;;2.90;2.70;;;;;;;;;;5075915;28;20405;-61
2021/08/10 01:30:41;;;;;;;4.25;3.28;;;;;;;;;;5074374;28;20041;-60
2021/08/10 01:33:07;;;;;;;2.88;2.65;;;;;;;;;;5074504;28;20043;-61
2021/08/10 01:35:35;;;;;;;7.03;2.55;;;;;;;;;;5074187;28;20111;-60
2021/08/10 01:38:04;;;;;;;4.17;2.43;;;;;;;;;;5074226;28;20040;-61
2021/08/10 01:40:31;;;;;;;3.45;2.17;;;;;;;;;;5074470;28;20298;-59
2021/08/10 01:42:59;;;;;;;3.22;2.20;;;;;;;;;;5074355;28;20101;-59
2021/08/10 01:45:26;;;;;;;4.07;2.33;;;;;;;;;;5074138;28;20028;-59
2021/08/10 01:47:59;;;;;;;4.20;2.35;;;;;;;;;;5074099;28;20036;-59
2021/08/10 01:50:25;;;;;;;5.05;2.15;;;;;;;;;;5074173;28;20086;-61
2021/08/10 01:53:02;;;;;;;2.83;2.20;;;;;;;;;;5074358;28;20025;-61
2021/08/10 01:55:31;;;;;;;2.92;2.05;;;;;;;;;;5075270;28;20086;-61
2021/08/10 01:57:59;;;;;;;2.13;1.92;;;;;;;;;;5074061;28;20033;-61
2021/08/10 02:00:26;;;;;;;2.58;2.30;;;;;;;;;;5074173;28;20044;-61
2021/08/10 02:02:57;;;;;;;4.20;1.92;;;;;;;;;;5073959;28;20131;-61
2021/08/10 02:05:33;;;;;;;2.50;1.98;;;;;;;;;;5073976;28;20048;-60
2021/08/10 02:08:01;;;;;;;2.67;2.47;;;;;;;;;;5073979;28;20054;-61
2021/08/10 02:10:29;;;;;;;4.43;2.55;;;;;;;;;;5073920;28;20116;-60
2021/08/10 02:12:57;;;;;;;2.97;2.47;;;;;;;;;;5073732;28;20051;-60
2021/08/10 02:15:23;;;;;;;2.38;2.00;;;;;;;;;;5073522;28;20472;-60
2021/08/10 02:17:55;;;;;;;3.58;2.10;;;;;;;;;;5072956;28;20032;-60
2021/08/10 02:20:34;;;;;;;2.22;2.13;;;;;;;;;;5073554;28;20037;-60
2021/08/10 02:23:01;;;;;;;2.60;2.40;;;;;;;;;;5073394;28;20045;-60
2021/08/10 02:25:27;;;;;;;2.78;2.38;;;;;;;;;;5073363;28;20373;-60
2021/08/10 02:28:05;;;;;;;2.55;2.13;;;;;;;;;;5073347;28;20505;-61
2021/08/10 02:30:36;;;;;;;3.65;2.30;;;;;;;;;;5073398;28;20033;-61
2021/08/10 02:33:05;;;;;;;3.65;2.33;;;;;;;;;;5073327;28;20213;-61
2021/08/10 02:35:34;;;;;;;3.30;2.13;;;;;;;;;;5072655;28;20111;-61
2021/08/10 02:38:04;;;;;;;3.63;2.70;;;;;;;;;;5073453;28;20036;-61
2021/08/10 02:40:30;;;;;;;2.87;2.67;;;;;;;;;;5073079;28;20048;-61
2021/08/10 02:42:59;;;;;;;5.95;2.30;;;;;;;;;;5073193;28;20041;-61
2021/08/10 02:45:25;;;;;;;6.75;2.75;;;;;;;;;;5072874;28;20392;-61
2021/08/10 02:47:57;;;;;;;6.10;2.70;;;;;;;;;;5073063;28;20044;-61
2021/08/10 02:50:27;;;;;;;4.30;2.70;;;;;;;;;;5072909;28;20568;-61
2021/08/10 02:52:52;;;;;;;3.53;2.25;;;;;;;;;;5074227;28;20024;-60
2021/08/10 02:55:21;;;;;;;4.22;2.35;;;;;;;;;;5072838;28;20408;-59
2021/08/10 02:57:53;;;;;;;4.03;2.40;;;;;;;;;;5072742;28;20048;-58
2021/08/10 03:00:20;;;;;;;2.40;2.22;;;;;;;;;;5072711;28;20110;-59
2021/08/10 03:02:48;;;;;;;3.60;2.40;;;;;;;;;;5088845;28;20071;-59
2021/08/10 03:05:16;;;;;;;2.33;2.13;;;;;;;;;;5076125;28;20034;-58
2021/08/10 03:07:51;;;;;;;2.65;2.15;;;;;;;;;;5076000;28;20034;-58
2021/08/10 03:10:18;;;;;;;2.90;2.58;;;;;;;;;;5093940;28;20565;-61
2021/08/10 03:12:49;;;;;;;3.35;2.70;;;;;;;;;;5076019;28;20028;-60
2021/08/10 03:15:20;;;;;;;4.47;2.63;;;;;;;;;;5075728;28;20468;-60
2021/08/10 03:17:46;;;;;;;4.10;2.50;;;;;;;;;;5075739;28;20051;-60
2021/08/10 03:20:13;;;;;;;4.43;3.10;;;;;;;;;;5075691;28;20169;-59
2021/08/10 03:22:40;;;;;;;6.40;2.90;;;;;;;;;;5075788;28;20043;-59
2021/08/10 03:25:07;;;;;;;3.63;2.60;;;;;;;;;;5093612;28;20491;-59
2021/08/10 03:27:34;;;;;;;3.30;2.55;;;;;;;;;;5075530;28;20043;-59
2021/08/10 03:30:02;;;;;;;3.03;2.40;;;;;;;;;;5075704;28;20020;-59
2021/08/10 03:32:27;;;;;;;2.60;2.40;;;;;;;;;;5075772;28;20422;-59
2021/08/10 03:34:53;;;;;;;3.83;2.42;;;;;;;;;;5058872;28;20082;-59
2021/08/10 03:37:19;;;;;;;3.40;2.65;;;;;;;;;;5075302;28;20398;-59
2021/08/10 03:39:45;;;;;;;4.05;2.10;;;;;;;;;;5075640;28;20036;-59
2021/08/10 03:42:12;;;;;;;3.58;2.22;;;;;;;;;;5075675;28;20032;-58
2021/08/10 03:44:42;;;;;;;4.18;2.53;;;;;;;;;;5075535;28;20028;-60
2021/08/10 03:47:12;;;;;;;3.25;2.40;;;;;;;;;;5074312;28;20072;-59
2021/08/10 03:49:37;;;;;;;3.70;2.20;;;;;;;;;;5075645;28;20484;-60
2021/08/10 03:52:05;;;;;;;5.45;2.35;;;;;;;;;;5075208;28;20332;-59
2021/08/10 03:54:31;;;;;;;3.90;2.55;;;;;;;;;;5075347;28;20123;-59
2021/08/10 03:56:58;;;;;;;2.30;2.20;;;;;;;;;;5075169;28;20050;-60
2021/08/10 03:59:27;;;;;;;2.33;2.13;;;;;;;;;;5074422;28;20027;-60
2021/08/10 04:01:54;;;;;;;2.55;2.28;;;;;;;;;;5071673;28;20043;-60
2021/08/10 04:04:22;;;;;;;2.58;2.25;;;;;;;;;;5075075;28;20089;-60
2021/08/10 04:06:54;;;;;;;3.17;2.80;;;;;;;;;;5074808;28;20473;-60
2021/08/10 04:09:21;;;;;;;2.67;2.47;;;;;;;;;;5074453;28;20039;-59
2021/08/10 04:11:48;;;;;;;3.50;2.15;;;;;;;;;;5075143;28;20028;-59
2021/08/10 04:14:19;;;;;;;2.47;2.28;;;;;;;;;;5074931;28;20043;-59
2021/08/10 04:16:57;;;;;;;3.88;2.35;;;;;;;;;;5087061;28;20036;-59
2021/08/10 04:19:26;;;;;;;2.40;2.08;;;;;;;;;;5075231;28;20036;-60
2021/08/10 04:21:53;;;;;;;2.40;2.20;;;;;;;;;;5093131;28;20036;-59
2021/08/10 04:24:19;;;;;;;2.13;1.90;;;;;;;;;;5074926;28;20519;-59
2021/08/10 04:26:45;;;;;;;2.08;1.98;;;;;;;;;;5075025;28;20036;-60
2021/08/10 04:29:13;;;;;;;3.10;2.05;;;;;;;;;;5074856;28;20030;-59
2021/08/10 04:31:40;;;;;;;2.67;2.10;;;;;;;;;;5074897;28;20087;-60
2021/08/10 04:34:06;;;;;;;3.97;2.40;;;;;;;;;;5074805;28;20035;-60
2021/08/10 04:40:20;;;;;;;2.53;2.33;;;;;;;;;;5093364;28;20035;-59
2021/08/10 04:46:40;;;;;;;1.98;1.88;;;;;;;;;;5093224;28;20027;-59
2021/08/10 04:52:40;;;;;;;4.53;2.17;;;;;;;;;;5093491;28;20050;-59
2021/08/10 04:58:41;;;;;;;2.08;1.90;;;;;;;;;;5096382;28;20094;-59
2021/08/10 05:08:20;;;;;;;2.25;2.15;;;;;;;;;;5096763;28;20066;-59
2021/08/10 05:14:20;;;;;;;2.40;2.30;;;;;;;;;;5096924;28;20099;-59
2021/08/10 05:20:21;;;;;;;3.13;2.47;;;;;;;;;;5096813;28;20031;-60
2021/08/10 05:26:24;;;;;;;2.58;2.30;;;;;;;;;;5096712;28;20031;-59
2021/08/10 05:36:20;;;;;;;2.50;2.30;;;;;;;;;;5096531;28;20031;-59
2021/08/10 05:42:22;;;;;;;3.05;2.40;;;;;;;;;;5096387;28;20142;-59
2021/08/10 05:48:23;;;;;;;2.83;2.45;;;;;;;;;;5096040;28;20035;-59
2021/08/10 05:54:28;;;;;;;1.80;1.70;;;;;;;;;;5095951;28;20026;-59
2021/08/10 06:00:29;;;;;;;1.83;1.73;;;;;;;;;;5096070;28;20035;-60
2021/08/10 06:09:57;;;;;;;2.08;1.98;;;;;;;;;;5094906;28;20078;-59
2021/08/10 06:15:58;;;;;;;2.03;1.88;;;;;;;;;;5095772;28;20074;-60
2021/08/10 06:21:59;;;;;;;2.42;2.22;;;;;;;;;;5095598;28;20170;-59
2021/08/10 06:28:05;;;;;;;3.38;3.08;;;;;;;;;;5095520;28;20119;-59
2021/08/10 06:34:09;;;;;;;7.57;4.55;;;;;;;;;;5095381;28;20080;-59
2021/08/10 06:40:10;;;;;;;8.48;5.15;;;;;;;;;;5095285;28;20375;-59
2021/08/10 06:46:11;;;;;;;2.60;2.40;;;;;;;;;;5095179;28;20117;-59
2021/08/10 06:52:12;;;;;;;3.70;2.58;;;;;;;;;;5095046;28;20030;-59
2021/08/10 06:58:13;;;;;;;2.00;1.90;;;;;;;;;;5094928;28;20116;-60
2021/08/10 07:04:14;;;;;;;2.38;1.88;;;;;;;;;;5094815;28;20077;-59
2021/08/10 07:13:28;;;;;;;2.38;2.17;;;;;;;;;;5094665;28;20120;-59
2021/08/10 07:19:34;;;;;;;3.17;2.30;;;;;;;;;;5094543;28;20054;-59
2021/08/10 07:25:36;;;;;;;3.20;2.90;;;;;;;;;;5094447;28;20023;-59
2021/08/10 07:31:37;;;;;;;3.30;2.45;;;;;;;;;;5094379;28;20031;-59
2021/08/10 07:41:50;;;;;;;4.70;2.67;;;;;;;;;;5031780;28;20029;-59
2021/08/10 07:47:50;;;;;;;4.05;2.70;;;;;;;;;;5031732;28;20516;-60
2021/08/10 07:57:57;;;;;;;4.60;3.38;;;;;;;;;;5031873;28;20052;-59
2021/08/10 08:07:33;;;;;;;2.88;2.38;;;;;;;;;;5093607;28;20039;-59
2021/08/10 08:16:57;;;;;;;3.13;2.00;;;;;;;;;;5093820;28;20105;-59
2021/08/10 08:22:58;;;;;;;3.50;2.08;;;;;;;;;;5093525;28;20026;-59
2021/08/10 08:28:59;;;;;;;2.40;2.00;;;;;;;;;;5093395;28;20043;-60
2021/08/10 08:35:00;;;;;;;3.80;1.80;;;;;;;;;;5097480;28;20129;-59
2021/08/10 08:41:01;;;;;;;2.05;1.85;;;;;;;;;;5097617;28;20031;-59
2021/08/10 08:47:04;;;;;;;2.20;1.60;;;;;;;;;;5097387;28;20391;-59
2021/08/10 08:53:06;;;;;;;2.58;1.75;;;;;;;;;;5097395;28;20030;-59
2021/08/10 09:03:19;;;;;;;2.22;1.80;;;;;;;;;;5097180;28;20023;-59
2021/08/10 09:09:27;;;;;;;2.00;1.70;;;;;;;;;;5097053;28;20035;-59
2021/08/10 09:19:08;;;;;;;1.80;1.70;;;;;;;;;;5097176;28;20067;-59
2021/08/10 09:25:14;;;;;;;1.92;1.83;;;;;;;;;;5096782;28;20090;-59
2021/08/10 09:38:25;;;;;;;1.58;1.48;;;;;;;;;;5096524;28;20036;-60
2021/08/10 09:44:27;;;;;;;1.55;1.45;;;;;;;;;;5096380;28;20062;-59
2021/08/10 09:50:28;;;;;;;1.70;1.60;;;;;;;;;;5096312;28;20050;-59
2021/08/10 09:56:36;;;;;;;1.90;1.80;;;;;;;;;;5096162;28;20034;-60
2021/08/10 10:02:37;;;;;;;1.80;1.70;;;;;;;;;;5096075;28;20507;-59
2021/08/10 10:08:38;;;;;;;4.47;1.65;;;;;;;;;;5095703;28;20065;-59
2021/08/10 10:18:24;;;;;;;1.50;1.35;;;;;;;;;;5095756;28;20086;-59
2021/08/10 10:24:25;;;;;;;1.38;1.27;;;;;;;;;;5095611;28;20542;-59
2021/08/10 10:30:29;;;;;;;1.90;1.80;;;;;;;;;;5095501;28;20085;-59
2021/08/10 10:40:21;;;;;;;8.60;2.17;;;;;;;;;;5095314;28;20448;-59
2021/08/10 10:56:52;;;;;;;2.35;1.80;;;;;;;;;;5052027;28;20075;-59
2021/08/10 11:13:21;;;;;;;1.90;1.80;;;;;;;;;;4993162;28;20038;-60
2021/08/10 11:22:31;;;;;;;6.47;2.30;;;;;;;;;;5012381;28;20080;-59
2021/08/10 11:28:32;;;;;;;2.17;1.80;;;;;;;;;;5012251;28;20485;-59
2021/08/10 11:34:34;;;;;;;1.92;1.75;;;;;;;;;;5012441;28;20024;-59
2021/08/10 11:40:50;;;;;;;25.20;7.72;;;;;;;;;;5054050;28;20404;-59
2021/08/10 11:46:51;;;;;;;13.98;5.18;;;;;;;;;;5053881;28;20028;-59
2021/08/10 11:52:51;;;;;;;9.63;3.40;;;;;;;;;;5053832;28;20171;-59
2021/08/10 11:58:52;;;;;;;1.85;1.75;;;;;;;;;;5053767;28;20511;-59
2021/08/10 12:04:53;;;;;;;2.17;1.70;;;;;;;;;;5053219;28;20031;-60
2021/08/10 12:10:54;;;;;;;2.42;2.22;;;;;;;;;;5053661;28;20024;-59
2021/08/10 12:16:58;;;;;;;3.13;2.40;;;;;;;;;;5053333;28;20028;-59
2021/08/10 12:26:16;;;;;;;3.15;2.10;;;;;;;;;;5094057;28;20115;-59
2021/08/10 12:32:26;;;;;;;2.03;1.92;;;;;;;;;;5093459;28;20036;-59
2021/08/10 12:38:28;;;;;;;2.70;2.50;;;;;;;;;;5093679;28;20093;-59
2021/08/10 12:44:28;;;;;;;2.35;2.17;;;;;;;;;;5093371;28;20121;-59
2021/08/10 12:50:30;;;;;;;2.00;1.90;;;;;;;;;;5093332;28;20583;-59
2021/08/10 12:56:33;;;;;;;1.83;1.73;;;;;;;;;;5093500;28;20041;-59
2021/08/10 13:02:37;;;;;;;2.28;2.05;;;;;;;;;;5093577;28;20396;-59
2021/08/10 13:19:22;;;;;;;5.10;2.53;;;;;;;;;;5053290;28;20067;-59
2021/08/10 13:28:58;;;;;;;2.10;2.00;;;;;;;;;;5054139;28;20044;-59
2021/08/10 13:38:32;;;;;;;3.42;2.63;;;;;;;;;;5053960;28;20122;-59
2021/08/10 13:44:32;;;;;;;1.80;1.70;;;;;;;;;;5075961;28;20032;-59
2021/08/10 13:50:33;;;;;;;4.03;2.70;;;;;;;;;;5076061;28;20383;-59
2021/08/10 13:56:33;;;;;;;1.98;1.88;;;;;;;;;;5075973;28;20031;-59
2021/08/10 14:02:38;;;;;;;2.00;1.90;;;;;;;;;;5075856;28;20178;-59
2021/08/10 14:08:38;;;;;;;1.80;1.70;;;;;;;;;;5075482;28;20035;-59
2021/08/10 14:14:39;;;;;;;2.20;2.05;;;;;;;;;;5075608;28;20119;-59
2021/08/10 14:20:40;;;;;;;2.10;1.85;;;;;;;;;;5068710;28;20434;-59
2021/08/10 14:23:06;;;;;;;1.73;1.63;;;;;;;;;;5064834;28;20127;-59
2021/08/10 14:25:31;;;;;;;1.95;1.85;;;;;;;;;;5087497;28;20032;-60
2021/08/10 14:27:57;;;;;;;2.03;1.92;;;;;;;;;;5094317;28;20483;-60
2021/08/10 14:30:22;;;;;;;1.90;1.80;;;;;;;;;;5093635;28;20047;-59
2021/08/10 14:32:48;;;;;;;2.88;2.00;;;;;;;;;;5094088;28;20032;-59
2021/08/10 14:35:13;;;;;;;2.40;1.90;;;;;;;;;;5094385;28;20032;-59
2021/08/10 14:37:39;;;;;;;1.90;1.80;;;;;;;;;;5094417;28;20040;-59
2021/08/10 14:40:05;;;;;;;1.88;1.77;;;;;;;;;;5094851;28;20384;-59
2021/08/10 14:42:31;;;;;;;2.03;1.92;;;;;;;;;;5094655;28;20036;-59
2021/08/10 14:44:57;;;;;;;2.38;2.20;;;;;;;;;;5076473;28;20405;-59
2021/08/10 14:47:22;;;;;;;2.42;2.20;;;;;;;;;;5094484;28;20054;-58
2021/08/10 14:49:48;;;;;;;2.03;1.88;;;;;;;;;;5094416;28;20101;-62
2021/08/10 14:52:13;;;;;;;2.70;2.03;;;;;;;;;;5094681;28;20035;-59
2021/08/10 14:54:39;;;;;;;2.17;1.98;;;;;;;;;;5094666;28;20028;-59
2021/08/10 14:57:04;;;;;;;2.40;2.20;;;;;;;;;;5094261;28;20044;-59
2021/08/10 14:59:30;;;;;;;2.55;1.80;;;;;;;;;;5094355;28;20032;-59
2021/08/10 15:01:55;;;;;;;2.42;1.73;;;;;;;;;;5094535;28;20032;-59
2021/08/10 15:04:21;;;;;;;2.20;2.10;;;;;;;;;;5094559;28;20024;-59
2021/08/10 15:06:46;;;;;;;2.45;2.00;;;;;;;;;;5094316;28;20507;-59
2021/08/10 15:09:12;;;;;;;2.45;2.00;;;;;;;;;;5091215;28;20028;-59
2021/08/10 15:11:38;;;;;;;1.80;1.70;;;;;;;;;;5083909;28;20043;-59
2021/08/10 15:14:03;;;;;;;1.90;1.80;;;;;;;;;;5073793;28;20032;-58
2021/08/10 15:16:29;;;;;;;2.00;1.90;;;;;;;;;;5073705;28;20131;-59
2021/08/10 15:18:57;;;;;;;2.22;1.80;;;;;;;;;;5073700;28;20118;-58
2021/08/10 15:21:22;;;;;;;2.20;2.00;;;;;;;;;;5073944;28;20131;-59
2021/08/10 15:23:47;;;;;;;2.40;2.20;;;;;;;;;;5073954;28;20120;-59
2021/08/10 15:26:13;;;;;;;2.05;1.80;;;;;;;;;;5073393;28;20397;-58
2021/08/10 15:28:39;;;;;;;2.20;2.00;;;;;;;;;;5073310;28;20095;-59
2021/08/10 15:31:04;;;;;;;2.45;2.15;;;;;;;;;;5073809;28;20044;-59
2021/08/10 15:33:30;;;;;;;1.70;1.60;;;;;;;;;;5073332;28;20032;-59
2021/08/10 15:35:56;;;;;;;2.55;1.80;;;;;;;;;;5072156;28;20392;-59
2021/08/10 15:38:21;;;;;;;3.38;1.80;;;;;;;;;;5072640;28;20099;-59
2021/08/10 15:40:48;;;;;;;2.70;2.50;;;;;;;;;;5073356;28;20040;-59
2021/08/10 15:43:13;;;;;;;2.83;2.33;;;;;;;;;;5073686;28;20036;-59
2021/08/10 15:49:14;;;;;;;1.92;1.77;;;;;;;;;;5073645;28;20031;-59
2021/08/10 15:55:15;;;;;;;4.80;3.42;;;;;;;;;;5073924;28;20408;-59
2021/08/10 16:01:16;;;;;;;2.33;2.13;;;;;;;;;;5073814;28;20023;-59
2021/08/10 16:07:19;;;;;;;2.08;1.98;;;;;;;;;;5073700;28;20110;-59
2021/08/10 16:13:19;;;;;;;3.17;2.38;;;;;;;;;;5073465;28;20035;-58
2021/08/10 16:22:54;;;;;;;3.47;3.03;;;;;;;;;;5073592;28;20091;-59
2021/08/10 16:32:03;;;;;;;2.40;2.20;;;;;;;;;;5073259;28;19981;-59
2021/08/10 16:38:04;;;;;;;2.53;2.33;;;;;;;;;;5073467;28;20099;-59
2021/08/10 16:44:04;;;;;;;3.92;2.30;;;;;;;;;;5073420;28;20031;-58
2021/08/10 16:50:06;;;;;;;2.88;2.58;;;;;;;;;;5073360;28;20039;-59
2021/08/10 16:56:07;;;;;;;2.25;2.00;;;;;;;;;;5076817;28;20091;-59
2021/08/10 17:02:08;;;;;;;2.38;2.17;;;;;;;;;;5076991;28;20086;-58
2021/08/10 17:08:09;;;;;;;2.50;1.90;;;;;;;;;;5076720;28;20041;-59
2021/08/10 17:14:09;;;;;;;2.60;1.98;;;;;;;;;;5077019;28;20163;-59
2021/08/10 17:20:10;;;;;;;2.78;2.45;;;;;;;;;;5076648;28;20522;-58
2021/08/10 17:26:12;;;;;;;7.28;4.40;;;;;;;;;;5076285;28;20412;-58
2021/08/10 17:35:35;;;;;;;2.97;2.70;;;;;;;;;;5076810;28;20109;-58
2021/08/10 17:41:36;;;;;;;2.88;2.25;;;;;;;;;;5076315;28;20213;-59
2021/08/10 17:47:37;;;;;;;4.65;2.42;;;;;;;;;;5076041;28;20048;-59
2021/08/10 17:53:38;;;;;;;5.32;4.07;;;;;;;;;;5076046;28;20031;-59
2021/08/10 17:59:39;;;;;;;9.75;5.53;;;;;;;;;;5075938;28;20035;-58
2021/08/10 18:05:40;;;;;;;3.42;2.72;;;;;;;;;;5074563;28;20027;-59
2021/08/10 18:11:41;;;;;;;2.83;2.28;;;;;;;;;;5075690;28;20063;-58
2021/08/10 19:03:43;;;;;;;9.30;3.92;;;;;;;;;;5110997;28;20102;-59
2021/08/10 19:06:12;;;;;;;3.20;2.70;;;;;;;;;;5113865;28;20114;-59
2021/08/10 19:08:38;;;;;;;3.35;3.05;;;;;;;;;;5114494;28;20027;-61
2021/08/10 19:11:04;;;;;;;3.22;2.90;;;;;;;;;;5114301;28;20035;-61
2021/08/10 19:13:29;;;;;;;5.53;2.60;;;;;;;;;;5114124;28;20119;-61
2021/08/10 19:15:55;;;;;;;3.47;2.30;;;;;;;;;;5113863;28;20040;-60
2021/08/10 19:18:20;;;;;;;3.42;2.85;;;;;;;;;;5114218;28;20067;-59
2021/08/10 19:20:46;;;;;;;5.00;3.47;;;;;;;;;;5114210;28;20036;-61
2021/08/10 19:23:11;;;;;;;6.03;3.38;;;;;;;;;;5114308;28;20459;-61
2021/08/10 19:25:37;;;;;;;3.63;3.05;;;;;;;;;;5114210;28;20467;-59
2021/08/10 19:28:02;;;;;;;5.30;3.70;;;;;;;;;;5114149;28;20039;-59
2021/08/10 19:30:28;;;;;;;4.47;3.70;;;;;;;;;;5104639;28;20538;-59
2021/08/10 19:32:54;;;;;;;9.52;5.38;;;;;;;;;;5110727;28;20032;-59
2021/08/10 19:35:20;;;;;;;7.00;5.10;;;;;;;;;;5110895;28;20036;-59
2021/08/10 19:37:49;;;;;;;7.93;5.00;;;;;;;;;;5110582;28;20032;-59
2021/08/10 19:40:14;;;;;;;6.32;4.45;;;;;;;;;;5110673;28;20036;-59
2021/08/10 19:42:40;;;;;;;6.05;4.15;;;;;;;;;;5110575;28;20038;-59
2021/08/10 19:45:06;;;;;;;5.68;4.70;;;;;;;;;;5110760;28;20044;-59
2021/08/10 19:47:32;;;;;;;4.57;4.15;;;;;;;;;;5110368;28;20092;-59
2021/08/10 19:49:57;;;;;;;5.22;4.00;;;;;;;;;;5110430;28;20388;-59
2021/08/10 19:52:23;;;;;;;4.90;3.15;;;;;;;;;;5110473;28;20035;-59
2021/08/10 19:54:48;;;;;;;3.13;2.83;;;;;;;;;;5110711;28;20036;-59
2021/08/10 19:57:14;;;;;;;3.17;2.88;;;;;;;;;;5110289;28;20542;-58
2021/08/10 19:59:39;;;;;;;3.33;2.63;;;;;;;;;;5109533;28;20101;-59
2021/08/10 20:02:05;;;;;;;3.53;2.75;;;;;;;;;;5097220;27;20530;-59
2021/08/10 20:04:30;;;;;;;5.53;3.63;;;;;;;;;;5130821;27;20039;-59
2021/08/10 20:06:56;;;;;;;5.32;4.07;;;;;;;;;;5130333;27;20062;-59
2021/08/10 20:09:21;;;;;;;5.80;3.72;;;;;;;;;;5111627;28;20047;-59
2021/08/10 20:11:47;;;;;;;5.78;4.10;;;;;;;;;;5130867;28;20439;-59
2021/08/10 20:14:12;;;;;;;6.38;4.20;;;;;;;;;;5130857;28;20482;-59
2021/08/10 20:16:38;;;;;;;7.05;4.20;;;;;;;;;;5130845;28;20031;-60
2021/08/10 20:19:07;;;;;;;5.68;3.75;;;;;;;;;;5130443;28;20482;-58
2021/08/10 20:21:33;;;;;;;12.32;6.78;;;;;;;;;;5130792;28;20035;-59
2021/08/10 20:23:58;;;;;;;7.63;4.47;;;;;;;;;;5130686;28;20043;-59
2021/08/10 20:26:24;;;;;;;6.65;4.90;;;;;;;;;;5130587;28;20490;-59
2021/08/10 20:28:50;;;;;;;5.85;4.45;;;;;;;;;;5132510;27;20041;-59
2021/08/10 20:31:15;;;;;;;7.90;4.88;;;;;;;;;;5134825;27;20164;-59
2021/08/10 20:33:40;;;;;;;5.60;4.25;;;;;;;;;;5134742;27;20490;-59
2021/08/10 20:36:07;;;;;;;5.03;4.50;;;;;;;;;;5134673;27;20038;-59
2021/08/10 20:38:32;;;;;;;5.03;4.40;;;;;;;;;;5136061;27;20500;-59
2021/08/10 20:40:58;;;;;;;5.60;4.55;;;;;;;;;;5137716;27;20089;-63
2021/08/10 20:43:23;;;;;;;6.22;4.50;;;;;;;;;;5119989;27;20187;-63
2021/08/10 20:45:49;;;;;;;5.22;3.33;;;;;;;;;;5138137;27;20031;-59
2021/08/10 20:48:14;;;;;;;4.47;3.03;;;;;;;;;;5137897;27;20039;-59
2021/08/10 20:50:40;;;;;;;4.40;3.30;;;;;;;;;;5137830;27;20027;-59
2021/08/10 20:53:06;;;;;;;3.42;3.10;;;;;;;;;;5137817;27;20031;-59
2021/08/10 20:55:31;;;;;;;9.77;3.63;;;;;;;;;;5137463;27;20032;-60
2021/08/10 20:57:57;;;;;;;4.65;3.42;;;;;;;;;;5137967;27;20043;-59
2021/08/10 21:00:22;;;;;;;3.88;3.42;;;;;;;;;;5137534;27;20031;-59
2021/08/10 21:02:48;;;;;;;4.22;3.10;;;;;;;;;;5137333;27;20043;-61
2021/08/10 21:05:13;;;;;;;3.67;3.38;;;;;;;;;;5137728;27;20084;-61
2021/08/10 21:07:39;;;;;;;5.35;3.25;;;;;;;;;;5137710;27;20031;-61
2021/08/10 21:10:05;;;;;;;6.20;3.63;;;;;;;;;;5137390;27;20023;-61
2021/08/10 21:12:30;;;;;;;3.60;3.30;;;;;;;;;;5119041;27;20049;-61
2021/08/10 21:14:56;;;;;;;3.65;3.38;;;;;;;;;;5137311;27;20534;-61
2021/08/10 21:17:21;;;;;;;4.40;3.40;;;;;;;;;;5137456;27;20031;-61
2021/08/10 21:19:47;;;;;;;3.72;3.15;;;;;;;;;;5137463;27;20019;-61
2021/08/10 21:22:12;;;;;;;3.63;2.85;;;;;;;;;;5137530;27;20371;-61
2021/08/10 21:24:37;;;;;;;4.20;3.20;;;;;;;;;;5137430;27;20023;-61
2021/08/10 21:27:03;;;;;;;4.57;3.38;;;;;;;;;;5118707;27;20125;-61
2021/08/10 21:29:29;;;;;;;4.75;3.30;;;;;;;;;;5136819;27;20031;-61
2021/08/10 21:31:54;;;;;;;5.00;3.00;;;;;;;;;;5136899;27;20034;-61
2021/08/10 21:34:20;;;;;;;4.68;3.78;;;;;;;;;;5137084;27;20456;-61
2021/08/10 21:36:45;;;;;;;4.15;3.75;;;;;;;;;;5137006;27;20033;-61
2021/08/10 21:39:10;;;;;;;4.05;3.17;;;;;;;;;;5136659;27;20035;-61
2021/08/10 21:41:36;;;;;;;4.57;3.45;;;;;;;;;;5136945;27;20062;-61
2021/08/10 21:44:02;;;;;;;5.90;4.18;;;;;;;;;;5136929;27;20026;-62
2021/08/10 21:46:27;;;;;;;8.32;4.45;;;;;;;;;;5136787;27;20490;-62
2021/08/10 21:48:53;;;;;;;6.15;4.18;;;;;;;;;;5118493;27;20121;-60
2021/08/10 21:51:18;;;;;;;5.47;3.80;;;;;;;;;;5136349;27;20367;-61
2021/08/10 21:53:44;;;;;;;6.10;4.20;;;;;;;;;;5136735;27;20517;-61
2021/08/10 21:56:09;;;;;;;8.40;4.97;;;;;;;;;;5136491;27;20050;-61
2021/08/10 21:58:35;;;;;;;9.80;4.10;;;;;;;;;;5136452;27;20027;-61
2021/08/10 22:01:00;;;;;;;4.28;3.88;;;;;;;;;;5136610;27;20027;-61
2021/08/10 22:03:26;;;;;;;5.28;3.95;;;;;;;;;;5136251;27;20368;-61
2021/08/10 22:05:53;;;;;;;5.43;4.18;;;;;;;;;;5136457;27;20035;-61
2021/08/10 22:08:18;;;;;;;6.57;4.45;;;;;;;;;;5136072;27;20027;-61
2021/08/10 22:10:44;;;;;;;5.53;3.83;;;;;;;;;;5136138;27;20041;-61
2021/08/10 22:13:09;;;;;;;4.95;4.00;;;;;;;;;;5136235;27;20031;-61
2021/08/10 22:15:35;;;;;;;5.32;4.47;;;;;;;;;;5136452;27;20035;-61
2021/08/10 22:18:00;;;;;;;5.07;4.13;;;;;;;;;;5136227;27;20027;-61
2021/08/10 22:20:26;;;;;;;3.58;3.33;;;;;;;;;;5136185;27;20035;-61
2021/08/10 22:22:51;;;;;;;4.13;3.25;;;;;;;;;;5136208;27;20106;-61
2021/08/10 22:25:17;;;;;;;3.50;3.20;;;;;;;;;;5136192;27;20035;-61
2021/08/10 22:27:42;;;;;;;3.70;3.40;;;;;;;;;;5135887;27;20594;-61
2021/08/10 22:30:09;;;;;;;5.78;3.72;;;;;;;;;;5136001;27;20027;-61
2021/08/10 22:32:34;;;;;;;5.22;4.22;;;;;;;;;;5135703;27;20107;-61
2021/08/10 22:35:00;;;;;;;6.10;4.35;;;;;;;;;;5135845;27;20439;-61
2021/08/10 22:37:25;;;;;;;4.93;3.92;;;;;;;;;;5135752;27;20391;-61
2021/08/10 22:39:52;;;;;;;6.22;4.70;;;;;;;;;;5135721;27;20047;-61
2021/08/10 22:42:18;;;;;;;7.53;5.07;;;;;;;;;;5135744;27;20015;-61
2021/08/10 22:44:43;;;;;;;14.32;7.18;;;;;;;;;;5135750;27;20038;-61
2021/08/10 22:47:09;;;;;;;11.23;6.82;;;;;;;;;;5135188;27;20041;-61
2021/08/10 22:49:34;;;;;;;12.57;7.07;;;;;;;;;;5135790;27;20039;-60
2021/08/10 22:52:00;;;;;;;4.00;3.63;;;;;;;;;;5134842;27;20066;-58
2021/08/10 22:54:26;;;;;;;4.15;3.58;;;;;;;;;;5135557;27;20039;-58
2021/08/10 22:56:52;;;;;;;6.15;3.40;;;;;;;;;;5135518;27;20026;-59
2021/08/10 22:59:18;;;;;;;4.97;3.17;;;;;;;;;;5135589;27;20069;-59
2021/08/10 23:01:44;;;;;;;3.75;3.45;;;;;;;;;;5135442;27;20023;-61
2021/08/10 23:04:09;;;;;;;5.32;3.53;;;;;;;;;;5135021;27;20070;-61
2021/08/10 23:06:35;;;;;;;3.47;3.22;;;;;;;;;;5135336;27;20118;-61
2021/08/10 23:09:00;;;;;;;4.50;3.20;;;;;;;;;;5134939;27;20035;-61
2021/08/10 23:11:26;;;;;;;5.07;3.60;;;;;;;;;;5134954;27;20015;-58
2021/08/10 23:13:52;;;;;;;4.03;3.67;;;;;;;;;;5135160;27;20035;-59
2021/08/10 23:16:19;;;;;;;4.13;3.25;;;;;;;;;;5134858;27;20034;-58
2021/08/10 23:18:44;;;;;;;4.40;3.83;;;;;;;;;;5135152;27;20033;-58
2021/08/10 23:21:11;;;;;;;3.30;3.08;;;;;;;;;;5116830;27;20074;-58
2021/08/10 23:23:36;;;;;;;4.10;3.33;;;;;;;;;;5135230;27;20096;-58
2021/08/10 23:26:04;;;;;;;4.28;3.58;;;;;;;;;;5135082;27;20502;-58
2021/08/10 23:28:32;;;;;;;3.55;3.25;;;;;;;;;;5134697;27;20442;-59
2021/08/10 23:30:57;;;;;;;4.10;3.53;;;;;;;;;;5134698;27;20074;-58